createdAt,value
2022-12-03T00:02:02.870Z,65.62
2022-12-03T00:04:36.160Z,65.69
2022-12-03T00:07:09.346Z,65.82
2022-12-03T00:09:42.882Z,65.74
2022-12-03T00:12:16.562Z,65.68
2022-12-03T00:14:50.268Z,65.67
2022-12-03T00:17:23.673Z,65.68
2022-12-03T00:19:57.190Z,65.58
2022-12-03T00:22:30.402Z,65.42
2022-12-03T00:25:03.997Z,65.41
2022-12-03T00:27:37.622Z,65.33
2022-12-03T00:30:14.009Z,65.44
2022-12-03T00:32:47.350Z,65.53
2022-12-03T00:35:20.887Z,65.54
2022-12-03T00:37:54.806Z,65.60
2022-12-03T00:40:28.127Z,65.60
2022-12-03T00:43:01.464Z,65.64
2022-12-03T00:45:34.982Z,65.55
2022-12-03T00:48:08.994Z,65.72
2022-12-03T00:50:42.098Z,65.98
2022-12-03T00:53:15.785Z,65.94
2022-12-03T00:55:50.789Z,66.02
2022-12-03T00:58:24.087Z,66.13
2022-12-03T01:00:57.801Z,66.22
2022-12-03T01:03:35.171Z,66.17
2022-12-03T01:06:11.119Z,66.32
2022-12-03T01:08:44.672Z,66.43
2022-12-03T01:11:36.255Z,66.48
2022-12-03T01:14:11.984Z,66.56
2022-12-03T01:16:46.262Z,66.39
2022-12-03T01:19:20.417Z,66.54
2022-12-03T01:21:55.696Z,66.50
2022-12-03T01:24:29.324Z,66.60
2022-12-03T01:27:02.634Z,66.75
2022-12-03T01:29:36.256Z,66.87
2022-12-03T01:32:20.130Z,67.00
2022-12-03T01:34:55.572Z,66.96
2022-12-03T01:37:30.253Z,67.02
2022-12-03T01:40:03.478Z,67.08
2022-12-03T01:42:39.642Z,67.15
2022-12-03T01:45:16.615Z,67.21
2022-12-03T01:47:50.237Z,67.17
2022-12-03T01:50:26.558Z,67.24
2022-12-03T01:53:03.149Z,67.19
2022-12-03T01:55:36.239Z,67.12
2022-12-03T01:58:11.927Z,67.05
2022-12-03T02:00:45.309Z,66.99
2022-12-03T02:03:22.306Z,66.99
2022-12-03T02:05:56.958Z,66.94
2022-12-03T02:08:32.619Z,66.71
2022-12-03T02:11:08.951Z,66.63
2022-12-03T02:13:45.493Z,66.49
2022-12-03T02:16:19.227Z,66.49
2022-12-03T02:18:53.149Z,66.47
2022-12-03T02:21:29.742Z,66.43
2022-12-03T02:24:06.960Z,66.53
2022-12-03T02:26:41.395Z,66.70
2022-12-03T02:29:14.800Z,66.86
2022-12-03T02:31:48.423Z,66.96
2022-12-03T02:34:39.050Z,67.05
2022-12-03T02:37:15.672Z,66.99
2022-12-03T02:39:52.201Z,67.03
2022-12-03T02:42:38.780Z,67.17
2022-12-03T02:45:16.579Z,67.12
2022-12-03T02:47:53.967Z,67.19
2022-12-03T02:50:29.855Z,67.24
2022-12-03T02:53:06.085Z,67.38
2022-12-03T02:55:40.647Z,67.51
2022-12-03T02:58:15.642Z,67.49
2022-12-03T03:00:50.449Z,67.70
2022-12-03T03:03:26.129Z,67.66
2022-12-03T03:06:00.618Z,67.72
2022-12-03T03:08:34.803Z,67.77
2022-12-03T03:11:09.283Z,67.69
2022-12-03T03:13:43.519Z,67.70
2022-12-03T03:16:17.447Z,67.76
2022-12-03T03:18:51.970Z,67.66
2022-12-03T03:21:25.818Z,67.72
2022-12-03T03:23:59.304Z,67.68
2022-12-03T03:26:33.071Z,67.66
2022-12-03T03:29:07.766Z,67.75
2022-12-03T03:31:42.605Z,67.80
2022-12-03T03:34:18.485Z,67.79
2022-12-03T03:36:52.059Z,67.78
2022-12-03T03:39:25.666Z,67.85
2022-12-03T03:42:09.479Z,67.83
2022-12-03T03:44:48.198Z,67.86
2022-12-03T03:47:23.415Z,67.79
2022-12-03T03:50:06.525Z,67.75
2022-12-03T03:52:42.113Z,67.72
2022-12-03T03:55:16.356Z,67.74
2022-12-03T03:57:50.599Z,67.69
2022-12-03T04:00:24.058Z,67.78
2022-12-03T04:02:57.728Z,67.67
2022-12-03T04:05:31.511Z,67.70
2022-12-03T04:08:05.509Z,67.72
2022-12-03T04:10:56.676Z,67.75
2022-12-03T04:13:30.646Z,67.63
2022-12-03T04:16:04.258Z,67.59
2022-12-03T04:18:44.407Z,67.62
2022-12-03T04:21:39.026Z,67.56
2022-12-03T04:24:14.342Z,67.64
2022-12-03T04:27:06.770Z,67.60
2022-12-03T04:29:42.693Z,67.77
2022-12-03T04:32:34.245Z,67.78
2022-12-03T04:35:28.422Z,67.80
2022-12-03T04:38:03.303Z,67.65
2022-12-03T04:40:54.353Z,67.65
2022-12-03T04:43:30.835Z,67.69
2022-12-03T04:46:05.615Z,67.61
2022-12-03T04:48:39.637Z,67.57
2022-12-03T04:51:13.533Z,67.48
2022-12-03T04:53:47.028Z,67.48
2022-12-03T04:56:21.281Z,67.37
2022-12-03T04:58:55.272Z,67.34
2022-12-03T05:01:29.580Z,67.29
2022-12-03T05:04:07.347Z,67.27
2022-12-03T05:06:41.079Z,67.26
2022-12-03T05:09:14.855Z,67.23
2022-12-03T05:11:49.368Z,67.27
2022-12-03T05:14:23.128Z,67.36
2022-12-03T05:16:56.528Z,67.50
2022-12-03T05:19:49.532Z,67.61
2022-12-03T05:22:23.064Z,67.66
2022-12-03T05:24:56.731Z,67.59
2022-12-03T05:27:30.783Z,67.61
2022-12-03T05:30:04.275Z,67.65
2022-12-03T05:32:38.618Z,67.63
2022-12-03T05:35:14.351Z,67.55
2022-12-03T05:37:48.107Z,67.50
2022-12-03T05:40:23.459Z,67.58
2022-12-03T05:42:57.771Z,67.63
2022-12-03T05:45:33.220Z,67.59
2022-12-03T05:48:08.582Z,67.61
2022-12-03T05:50:44.385Z,67.64
2022-12-03T05:53:21.746Z,67.65
2022-12-03T05:55:54.881Z,67.66
2022-12-03T05:58:28.151Z,67.59
2022-12-03T06:01:01.651Z,67.58
2022-12-03T06:03:35.178Z,67.39
2022-12-03T06:06:09.103Z,67.42
2022-12-03T06:08:42.209Z,67.41
2022-12-03T06:11:15.624Z,67.42
2022-12-03T06:13:48.970Z,67.33
2022-12-03T06:16:22.289Z,67.24
2022-12-03T06:18:55.964Z,67.16
2022-12-03T06:21:29.347Z,67.08
2022-12-03T06:24:02.448Z,67.00
2022-12-03T06:26:35.494Z,66.87
2022-12-03T06:29:10.446Z,66.74
2022-12-03T06:31:43.913Z,66.66
2022-12-03T06:34:17.598Z,66.55
2022-12-03T06:36:51.061Z,66.54
2022-12-03T06:39:24.315Z,66.44
2022-12-03T06:41:57.934Z,66.36
2022-12-03T06:44:31.124Z,66.20
2022-12-03T06:47:04.548Z,66.12
2022-12-03T06:49:37.853Z,66.01
2022-12-03T06:52:11.440Z,65.97
2022-12-03T06:54:44.795Z,65.88
2022-12-03T06:57:19.201Z,65.74
2022-12-03T06:59:53.175Z,65.75
2022-12-03T07:02:26.970Z,65.75
2022-12-03T07:05:00.764Z,65.72
2022-12-03T07:07:34.120Z,65.61
2022-12-03T07:10:09.239Z,65.56
2022-12-03T07:12:43.535Z,65.58
2022-12-03T07:15:17.436Z,65.49
2022-12-03T07:17:51.253Z,65.23
2022-12-03T07:20:24.454Z,64.91
2022-12-03T07:22:58.078Z,64.79
2022-12-03T07:25:31.242Z,64.59
2022-12-03T07:28:04.503Z,64.48
2022-12-03T07:30:37.646Z,64.46
2022-12-03T07:33:11.356Z,64.23
2022-12-03T07:35:45.370Z,64.06
2022-12-03T07:38:20.665Z,63.81
2022-12-03T07:40:53.810Z,63.38
2022-12-03T07:43:27.258Z,63.37
2022-12-03T07:46:00.911Z,62.81
2022-12-03T07:48:34.347Z,62.65
2022-12-03T07:51:09.582Z,62.69
2022-12-03T07:53:43.198Z,62.62
2022-12-03T07:56:16.611Z,62.37
2022-12-03T07:58:50.086Z,62.45
2022-12-03T08:01:23.936Z,62.41
2022-12-03T08:03:57.203Z,62.46
2022-12-03T08:06:31.077Z,62.31
2022-12-03T08:09:04.509Z,62.02
2022-12-03T08:11:38.502Z,61.65
2022-12-03T08:14:14.603Z,61.30
2022-12-03T08:16:49.326Z,60.78
2022-12-03T08:19:22.896Z,60.40
2022-12-03T08:22:01.044Z,60.00
2022-12-03T08:24:31.657Z,59.30
2022-12-03T08:27:06.744Z,58.61
2022-12-03T08:29:39.934Z,59.55
2022-12-03T08:32:14.153Z,59.66
2022-12-03T08:34:47.698Z,59.46
2022-12-03T08:37:22.213Z,58.77
2022-12-03T08:39:56.915Z,57.82
2022-12-03T08:42:43.903Z,58.33
2022-12-03T08:45:42.766Z,58.28
2022-12-03T08:48:33.442Z,58.21
2022-12-03T08:51:14.957Z,58.25
2022-12-03T08:53:50.294Z,58.50
2022-12-03T08:56:25.711Z,57.89
2022-12-03T08:59:02.170Z,57.92
2022-12-03T09:01:40.586Z,57.12
2022-12-03T09:04:27.762Z,57.43
2022-12-03T09:07:01.064Z,57.84
2022-12-03T09:09:34.798Z,57.91
2022-12-03T09:12:09.855Z,58.23
2022-12-03T09:14:42.949Z,58.71
2022-12-03T09:17:16.184Z,58.38
2022-12-03T09:19:49.624Z,58.21
2022-12-03T09:22:22.641Z,58.65
2022-12-03T09:24:56.470Z,59.26
2022-12-03T09:27:29.846Z,59.38
2022-12-03T09:30:03.186Z,59.48
2022-12-03T09:32:36.735Z,59.66
2022-12-03T09:35:12.922Z,59.92
2022-12-03T09:37:46.065Z,59.91
2022-12-03T09:40:19.835Z,59.92
2022-12-03T09:42:54.200Z,59.68
2022-12-03T09:45:27.870Z,59.63
2022-12-03T09:48:03.758Z,59.64
2022-12-03T09:50:40.036Z,59.84
2022-12-03T09:53:16.501Z,59.94
2022-12-03T09:55:50.493Z,60.04
2022-12-03T09:58:24.127Z,60.02
2022-12-03T10:00:57.952Z,60.21
2022-12-03T10:03:33.396Z,60.03
2022-12-03T10:06:07.133Z,60.52
2022-12-03T10:08:40.660Z,60.74
2022-12-03T10:11:13.938Z,60.56
2022-12-03T10:13:47.791Z,60.94
2022-12-03T10:16:22.504Z,61.13
2022-12-03T10:18:58.290Z,61.25
2022-12-03T10:21:35.552Z,61.49
2022-12-03T10:24:23.339Z,61.70
2022-12-03T10:26:59.019Z,62.04
2022-12-03T10:29:34.831Z,62.21
2022-12-03T10:32:11.903Z,62.36
2022-12-03T10:34:45.937Z,62.41
2022-12-03T10:37:20.758Z,62.39
2022-12-03T10:40:00.256Z,62.41
2022-12-03T10:42:35.788Z,62.48
2022-12-03T10:45:21.277Z,62.57
2022-12-03T10:48:09.543Z,62.69
2022-12-03T10:50:51.848Z,62.81
2022-12-03T10:53:27.802Z,63.01
2022-12-03T10:56:04.234Z,63.09
2022-12-03T10:58:40.812Z,63.20
2022-12-03T11:01:19.605Z,63.27
2022-12-03T11:03:55.928Z,63.31
2022-12-03T11:06:34.729Z,63.37
2022-12-03T11:09:15.501Z,63.47
2022-12-03T11:11:49.549Z,63.45
2022-12-03T11:15:11.318Z,63.57
2022-12-03T11:17:52.783Z,63.69
2022-12-03T11:21:11.365Z,63.89
2022-12-03T11:24:32.884Z,64.20
2022-12-03T11:30:10.610Z,64.61
2022-12-03T11:33:35.503Z,64.57
2022-12-03T11:36:36.367Z,64.66
2022-12-03T11:38:58.524Z,64.93
2022-12-03T11:42:06.156Z,65.14
2022-12-03T11:44:39.826Z,65.43
2022-12-03T11:47:18.192Z,65.71
2022-12-03T11:49:52.157Z,65.86
2022-12-03T11:52:31.544Z,65.89
2022-12-03T11:55:08.599Z,65.98
2022-12-03T11:57:44.920Z,66.08
2022-12-03T12:00:27.191Z,66.11
2022-12-03T12:03:01.513Z,66.21
2022-12-03T12:05:36.639Z,66.39
2022-12-03T12:08:12.919Z,66.56
2022-12-03T12:10:49.490Z,66.89
2022-12-03T12:13:54.690Z,67.12
2022-12-03T12:16:51.899Z,67.30
2022-12-03T12:19:31.132Z,67.48
2022-12-03T12:22:39.621Z,67.49
2022-12-03T12:25:37.221Z,67.68
2022-12-03T12:28:11.086Z,67.84
2022-12-03T12:30:44.592Z,67.96
2022-12-03T12:33:23.481Z,67.97
2022-12-03T12:35:57.755Z,67.89
2022-12-03T12:38:31.110Z,67.80
2022-12-03T12:41:08.812Z,67.72
2022-12-03T12:43:42.561Z,67.76
2022-12-03T12:46:46.628Z,67.85
2022-12-03T12:48:55.210Z,68.01
2022-12-03T12:51:27.913Z,68.04
2022-12-03T12:54:01.501Z,68.17
2022-12-03T12:56:35.064Z,68.23
2022-12-03T12:59:14.054Z,68.33
2022-12-03T13:01:48.958Z,68.43
2022-12-03T13:04:24.135Z,68.45
2022-12-03T13:06:58.776Z,68.43
2022-12-03T13:09:34.263Z,68.38
2022-12-03T13:12:12.397Z,68.37
2022-12-03T13:14:46.182Z,68.34
2022-12-03T13:17:23.525Z,68.31
2022-12-03T13:20:07.262Z,68.29
2022-12-03T13:22:34.480Z,68.27
2022-12-03T13:25:32.594Z,68.21
2022-12-03T13:27:53.656Z,68.12
2022-12-03T13:30:28.818Z,68.13
2022-12-03T13:33:03.022Z,68.21
2022-12-03T13:35:39.482Z,68.27
2022-12-03T13:38:16.821Z,68.25
2022-12-03T13:40:54.768Z,68.36
2022-12-03T13:43:32.110Z,68.45
2022-12-03T13:46:05.380Z,69.00
2022-12-03T13:48:38.778Z,69.33
2022-12-03T13:51:18.047Z,69.54
2022-12-03T13:53:51.555Z,69.75
2022-12-03T13:56:28.890Z,69.81
2022-12-03T13:59:04.523Z,69.90
2022-12-03T14:01:37.849Z,69.94
2022-12-03T14:04:11.810Z,70.00
2022-12-03T14:06:45.302Z,70.18
2022-12-03T14:09:19.043Z,70.32
2022-12-03T14:12:09.923Z,70.49
2022-12-03T14:14:43.519Z,70.65
2022-12-03T14:17:17.116Z,70.79
2022-12-03T14:19:50.812Z,70.93
2022-12-03T14:22:25.524Z,71.01
2022-12-03T14:24:59.381Z,71.13
2022-12-03T14:27:34.782Z,71.07
2022-12-03T14:30:10.706Z,71.13
2022-12-03T14:32:44.208Z,71.13
2022-12-03T14:35:17.987Z,71.19
2022-12-03T14:37:51.473Z,71.19
2022-12-03T14:40:25.220Z,71.25
2022-12-03T14:42:58.812Z,71.13
2022-12-03T14:45:33.372Z,71.37
2022-12-03T14:48:07.414Z,71.32
2022-12-03T14:50:40.668Z,71.44
2022-12-03T14:53:13.915Z,71.46
2022-12-03T14:55:48.269Z,71.60
2022-12-03T14:58:21.643Z,71.65
2022-12-03T15:00:55.154Z,71.71
2022-12-03T15:03:28.437Z,71.67
2022-12-03T15:06:01.740Z,71.63
2022-12-03T15:08:35.050Z,71.66
2022-12-03T15:11:08.810Z,71.68
2022-12-03T15:13:51.325Z,71.67
2022-12-03T15:16:26.176Z,71.58
2022-12-03T15:18:59.864Z,71.49
2022-12-03T15:21:54.474Z,71.43
2022-12-03T15:24:31.073Z,71.46
2022-12-03T15:27:05.659Z,71.44
2022-12-03T15:29:39.965Z,71.43
2022-12-03T15:32:16.478Z,71.41
2022-12-03T15:34:53.573Z,71.44
2022-12-03T15:37:28.142Z,71.52
2022-12-03T15:40:01.666Z,71.50
2022-12-03T15:42:35.589Z,71.33
2022-12-03T15:45:15.172Z,71.30
2022-12-03T15:47:45.674Z,71.23
2022-12-03T15:50:22.222Z,71.14
2022-12-03T15:52:57.425Z,70.94
2022-12-03T15:55:31.018Z,70.90
2022-12-03T15:58:04.393Z,70.80
2022-12-03T16:00:38.045Z,70.75
2022-12-03T16:03:11.409Z,70.66
2022-12-03T16:05:45.049Z,70.63
2022-12-03T16:08:18.593Z,70.53
2022-12-03T16:10:52.395Z,70.46
2022-12-03T16:13:34.977Z,70.63
2022-12-03T16:16:10.923Z,70.63
2022-12-03T16:18:44.266Z,70.55
2022-12-03T16:21:20.861Z,70.48
2022-12-03T16:24:10.857Z,70.59
2022-12-03T16:26:44.605Z,70.68
2022-12-03T16:29:18.785Z,70.92
2022-12-03T16:31:52.359Z,71.17
2022-12-03T16:40:14.735Z,71.66
2022-12-03T16:42:48.393Z,71.73
2022-12-03T16:45:55.701Z,71.87
2022-12-03T16:48:29.439Z,72.01
2022-12-03T16:51:07.557Z,72.08
2022-12-03T16:53:40.804Z,72.16
2022-12-03T16:56:15.526Z,72.20
2022-12-03T16:58:48.674Z,72.21
2022-12-03T17:01:23.495Z,72.25
2022-12-03T17:03:58.951Z,72.26
2022-12-03T17:06:34.601Z,72.19
2022-12-03T17:09:08.734Z,72.12
2022-12-03T17:11:43.730Z,71.83
2022-12-03T17:14:17.441Z,71.71
2022-12-03T17:16:50.985Z,71.41
2022-12-03T17:19:25.000Z,71.45
2022-12-03T17:21:59.957Z,71.28
2022-12-03T17:24:33.228Z,70.71
2022-12-03T17:27:08.069Z,70.79
2022-12-03T17:29:41.696Z,70.53
2022-12-03T17:32:15.630Z,70.12
2022-12-03T17:34:49.073Z,70.20
2022-12-03T17:37:22.551Z,70.41
2022-12-03T17:39:56.789Z,70.33
2022-12-03T17:42:30.631Z,69.98
2022-12-03T17:45:04.321Z,68.91
2022-12-03T17:47:37.953Z,69.25
2022-12-03T17:50:13.273Z,69.32
2022-12-03T17:52:46.408Z,69.19
2022-12-03T17:55:28.196Z,68.68
2022-12-03T17:57:55.509Z,67.94
2022-12-03T18:00:28.985Z,67.97
2022-12-03T18:03:02.451Z,67.43
2022-12-03T18:05:35.819Z,67.03
2022-12-03T18:08:09.837Z,67.27
2022-12-03T18:10:43.496Z,67.62
2022-12-03T18:13:16.817Z,67.57
2022-12-03T18:15:50.391Z,67.55
2022-12-03T18:18:23.670Z,67.68
2022-12-03T18:20:58.986Z,67.66
2022-12-03T18:23:33.575Z,67.50
2022-12-03T18:26:07.501Z,67.61
2022-12-03T18:28:41.284Z,67.39
2022-12-03T18:31:16.875Z,67.44
2022-12-03T18:33:50.776Z,67.32
2022-12-03T18:36:25.774Z,67.56
2022-12-03T18:39:01.248Z,67.35
2022-12-03T18:41:36.567Z,67.53
2022-12-03T18:44:12.197Z,67.62
2022-12-03T18:46:53.480Z,67.59
2022-12-03T18:49:22.327Z,67.77
2022-12-03T18:51:59.204Z,67.58
2022-12-03T18:54:31.160Z,67.59
2022-12-03T18:57:04.591Z,67.69
2022-12-03T18:59:38.483Z,67.70
2022-12-03T19:02:38.469Z,67.81
2022-12-03T19:04:51.398Z,67.81
2022-12-03T19:07:25.145Z,67.79
2022-12-03T19:09:58.728Z,67.89
2022-12-03T19:12:32.214Z,67.80
2022-12-03T19:15:06.776Z,67.88
2022-12-03T19:17:40.566Z,68.07
2022-12-03T19:20:15.165Z,68.14
2022-12-03T19:22:48.866Z,68.33
2022-12-03T19:25:22.221Z,68.38
2022-12-03T19:27:57.224Z,68.48
2022-12-03T19:30:30.709Z,68.73
2022-12-03T19:33:03.808Z,69.00
2022-12-03T19:35:41.135Z,69.04
2022-12-03T19:38:14.525Z,69.06
2022-12-03T19:40:47.969Z,69.18
2022-12-03T19:43:21.380Z,68.97
2022-12-03T19:45:55.251Z,69.11
2022-12-03T19:48:30.092Z,69.04
2022-12-03T19:51:26.607Z,68.77
2022-12-03T19:53:40.688Z,68.80
2022-12-03T19:56:15.585Z,69.08
2022-12-03T19:58:49.366Z,69.18
2022-12-03T20:01:25.435Z,69.18
2022-12-03T20:04:00.766Z,69.03
2022-12-03T20:06:37.625Z,68.95
2022-12-03T20:09:13.704Z,69.03
2022-12-03T20:11:47.567Z,68.99
2022-12-03T20:14:22.142Z,69.04
2022-12-03T20:16:56.292Z,69.20
2022-12-03T20:19:30.546Z,69.29
2022-12-03T20:22:04.682Z,69.28
2022-12-03T20:24:39.108Z,69.42
2022-12-03T20:27:13.326Z,69.48
2022-12-03T20:29:50.206Z,69.52
2022-12-03T20:32:24.878Z,69.58
2022-12-03T20:34:59.715Z,69.60
2022-12-03T20:37:34.790Z,69.52
2022-12-03T20:40:11.569Z,69.45
2022-12-03T20:42:49.255Z,69.23
2022-12-03T20:45:23.418Z,69.47
2022-12-03T20:47:57.519Z,69.44
2022-12-03T20:50:31.907Z,69.51
2022-12-03T20:53:23.732Z,69.44
2022-12-03T20:55:42.395Z,69.57
2022-12-03T20:58:16.750Z,69.65
2022-12-03T21:00:51.285Z,69.54
2022-12-03T21:03:25.603Z,69.61
2022-12-03T21:06:02.921Z,69.50
2022-12-03T21:08:41.535Z,69.50
2022-12-03T21:11:13.418Z,69.52
2022-12-03T21:13:47.517Z,69.32
2022-12-03T21:16:45.407Z,69.42
2022-12-03T21:19:00.121Z,69.44
2022-12-03T21:21:37.258Z,69.37
2022-12-03T21:24:12.110Z,69.37
2022-12-03T21:26:45.670Z,69.30
2022-12-03T21:29:19.333Z,69.14
2022-12-03T21:31:52.975Z,69.13
2022-12-03T21:34:31.314Z,68.99
2022-12-03T21:37:01.697Z,68.94
2022-12-03T21:39:35.049Z,69.04
2022-12-03T21:42:25.971Z,69.01
2022-12-03T21:44:43.757Z,69.05
2022-12-03T21:47:20.301Z,69.20
2022-12-03T21:49:54.116Z,69.09
2022-12-03T21:52:27.799Z,69.05
2022-12-03T21:55:01.302Z,68.85
2022-12-03T21:57:35.926Z,68.75
2022-12-03T22:00:11.940Z,68.82
2022-12-03T22:02:45.673Z,68.86
2022-12-03T22:05:19.715Z,68.77
2022-12-03T22:07:53.021Z,68.91
2022-12-03T22:10:26.559Z,69.00
2022-12-03T22:13:00.084Z,69.12
2022-12-03T22:15:33.639Z,69.12
2022-12-03T22:18:07.015Z,69.08
2022-12-03T22:20:41.764Z,69.17
2022-12-03T22:23:15.418Z,69.11
2022-12-03T22:25:48.480Z,68.83
2022-12-03T22:28:21.914Z,68.95
2022-12-03T22:30:55.384Z,68.90
2022-12-03T22:33:29.205Z,68.82
2022-12-03T22:36:04.639Z,69.00
2022-12-03T22:38:38.060Z,68.90
2022-12-03T22:41:13.258Z,68.93
2022-12-03T22:43:47.766Z,69.06
2022-12-03T22:46:21.184Z,69.03
2022-12-03T22:48:54.529Z,69.08
2022-12-03T22:51:29.192Z,68.98
2022-12-03T22:54:03.395Z,69.00
2022-12-03T22:56:37.482Z,68.93
2022-12-03T22:59:10.813Z,68.79
2022-12-03T23:01:44.431Z,68.84
2022-12-03T23:04:18.049Z,68.90
2022-12-03T23:06:51.515Z,68.81
2022-12-03T23:09:24.898Z,68.83
2022-12-03T23:11:58.675Z,68.84
2022-12-03T23:14:32.429Z,68.83
2022-12-03T23:17:05.887Z,68.85
2022-12-03T23:19:39.433Z,68.95
2022-12-03T23:22:13.019Z,68.91
2022-12-03T23:24:46.614Z,68.94
2022-12-03T23:27:20.276Z,69.02
2022-12-03T23:29:54.367Z,68.91
2022-12-03T23:32:28.008Z,68.71
2022-12-03T23:35:01.646Z,68.69
2022-12-03T23:37:35.512Z,68.69
2022-12-03T23:40:11.331Z,68.75
2022-12-03T23:42:44.802Z,68.84
2022-12-03T23:45:18.579Z,68.89
2022-12-03T23:47:57.919Z,69.09
2022-12-03T23:50:27.150Z,69.09
2022-12-03T23:53:00.764Z,69.13
2022-12-03T23:55:34.599Z,69.16
2022-12-03T23:58:08.095Z,69.09
